EKCH/CPH METAR and TAF weather

Enter ICAO airport designator
Station Type Date Time Source
EKCH METAR 2020/07/11 03:50 UTC NOAA

EKCH 110350Z AUTO 27014KT 9999 NCD 11/09 Q1014 NOSIG


Station Type Date Time Source
EKCH Decoded METAR 2020/07/11 03:50 UTC NOAA

Koebenhavn / Kastrup, Denmark (EKCH) 55-37N 012-39E 5M
Jul 10, 2020 - 11:50 PM EDT / 2020.07.11 0350 UTC
Wind: from the W (270 degrees) at 16 MPH (14 KT):0
Visibility: greater than 7 mile(s):0
Temperature: 51 F (11 C)
Dew Point: 48 F (9 C)
Relative Humidity: 87%
Pressure (altimeter): 29.94 in. Hg (1014 hPa)
ob: EKCH 110350Z AUTO 27014KT 9999 NCD 11/09 Q1014 NOSIG
cycle: 4

Station Type Date Time Source
EKCH TAF 2020/07/10 18:21 UTC NOAA

TAF EKCH 101716Z 1018/1118 26010KT 9999 SCT030
TEMPO 1018/1021 SHRA SCT030CB
TEMPO 1106/1112 28015G25KT
TEMPO 1112/1118 SCT030TCU

Example: see airport list